Time;durP1;ratioP1;P1;durP2;ratioP2;P2;SDS_P1;SDS_P2;PMS_P1;PMS_P2;Temp;Humidity;BMP_temperature;BMP_pressure;BME280_temperature;BME280_humidity;BME280_pressure;Samples;Min_cycle;Max_cycle;Signal;HPM_P1;HPM_P2
2022/04/08 00:00:17;;;;;;;;;;;21.10;28.80;;;;;;5121223;28;20022;-56
2022/04/08 00:02:43;;;;;;;;;;;21.20;28.80;;;;;;5121212;28;19981;-56
2022/04/08 00:05:09;;;;;;;;;;;21.10;28.70;;;;;;5125988;27;19924;-56
2022/04/08 00:07:35;;;;;;;;;;;21.10;28.70;;;;;;5119730;28;20005;-53
2022/04/08 00:10:01;;;;;;;;;;;21.30;28.40;;;;;;5119276;28;19924;-54
2022/04/08 00:12:27;;;;;;;;;;;20.90;28.70;;;;;;5106263;28;19946;-57
2022/04/08 00:14:53;;;;;;;;;;;21.20;28.30;;;;;;5120823;28;19979;-49
2022/04/08 00:17:19;;;;;;;;;;;20.90;28.50;;;;;;5126291;28;20022;-57
2022/04/08 00:19:45;;;;;;;;;;;21.10;28.30;;;;;;5120978;28;20404;-53
2022/04/08 00:22:10;;;;;;;;;;;21.10;28.20;;;;;;5121082;28;19978;-56
2022/04/08 00:24:36;;;;;;;;;;;21.20;28.10;;;;;;5126438;28;20302;-57
2022/04/08 00:27:02;;;;;;;;;;;21.20;28.00;;;;;;5117956;28;19941;-53
2022/04/08 00:29:28;;;;;;;;;;;21.20;27.90;;;;;;5120382;28;20111;-54
2022/04/08 00:31:57;;;;;;;;;;;21.10;27.90;;;;;;5124290;28;19923;-49
2022/04/08 00:34:24;;;;;;;;;;;21.10;27.90;;;;;;5120931;28;19923;-58
2022/04/08 00:36:50;;;;;;;;;;;21.30;27.70;;;;;;5125830;28;19923;-59
2022/04/08 00:39:16;;;;;;;;;;;21.10;28.10;;;;;;5121197;28;19950;-57
2022/04/08 00:41:42;;;;;;;;;;;21.10;27.80;;;;;;5120815;28;19923;-59
2022/04/08 00:44:09;;;;;;;;;;;21.00;27.90;;;;;;5123152;28;19932;-55
2022/04/08 00:46:38;;;;;;;;;;;21.20;27.60;;;;;;5118538;28;20010;-48
2022/04/08 00:49:04;;;;;;;;;;;21.10;27.70;;;;;;5118419;28;20014;-57
2022/04/08 00:51:30;;;;;;;;;;;21.10;27.80;;;;;;5126022;28;19927;-59
2022/04/08 00:53:56;;;;;;;;;;;21.10;27.80;;;;;;5120526;28;20316;-53
2022/04/08 00:56:22;;;;;;;;;;;21.30;27.60;;;;;;5121341;28;20402;-53
2022/04/08 00:58:48;;;;;;;;;;;21.10;27.80;;;;;;5125719;28;19923;-58
2022/04/08 01:01:13;;;;;;;;;;;21.20;27.70;;;;;;5120418;28;19923;-47
2022/04/08 01:03:39;;;;;;;;;;;21.00;27.90;;;;;;5104176;28;19938;-57
2022/04/08 01:06:06;;;;;;;;;;;21.20;27.80;;;;;;5119994;28;19927;-58
2022/04/08 01:08:32;;;;;;;;;;;21.10;27.90;;;;;;5118543;28;19930;-57
2022/04/08 01:10:59;;;;;;;;;;;21.00;28.20;;;;;;5125912;28;19927;-58
2022/04/08 01:13:25;;;;;;;;;;;21.20;28.00;;;;;;5120284;28;20558;-50
2022/04/08 01:15:51;;;;;;;;;;;21.00;28.20;;;;;;5120363;27;19935;-57
2022/04/08 01:18:17;;;;;;;;;;;21.30;27.90;;;;;;5128756;28;20462;-58
2022/04/08 01:20:42;;;;;;;;;;;21.10;28.00;;;;;;5122990;28;19972;-56
2022/04/08 01:23:08;;;;;;;;;;;21.10;28.10;;;;;;5126706;28;19924;-55
2022/04/08 01:25:34;;;;;;;;;;;21.10;28.00;;;;;;5121726;28;20267;-55
2022/04/08 01:28:00;;;;;;;;;;;21.20;27.90;;;;;;5123627;28;20014;-47
2022/04/08 01:30:26;;;;;;;;;;;21.10;27.90;;;;;;5129224;28;19927;-58
2022/04/08 01:32:51;;;;;;;;;;;21.20;27.70;;;;;;5123658;28;19923;-53
2022/04/08 01:35:17;;;;;;;;;;;21.10;27.90;;;;;;5123528;28;19946;-55
2022/04/08 01:37:43;;;;;;;;;;;21.30;27.50;;;;;;5129052;28;19980;-56
2022/04/08 01:40:09;;;;;;;;;;;21.00;27.50;;;;;;5120409;28;19923;-53
2022/04/08 01:42:35;;;;;;;;;;;21.20;27.40;;;;;;5128449;28;20010;-57
2022/04/08 01:45:01;;;;;;;;;;;21.20;27.40;;;;;;5121319;28;19968;-58
2022/04/08 01:47:27;;;;;;;;;;;20.90;27.80;;;;;;5123333;28;19935;-57
2022/04/08 01:49:52;;;;;;;;;;;21.10;27.50;;;;;;5128888;28;19927;-52
2022/04/08 01:52:18;;;;;;;;;;;21.00;27.80;;;;;;5123415;28;19927;-54
2022/04/08 01:54:44;;;;;;;;;;;21.30;27.60;;;;;;5123462;28;19935;-54
2022/04/08 01:57:10;;;;;;;;;;;21.00;27.90;;;;;;5127885;28;19936;-57
2022/04/08 01:59:36;;;;;;;;;;;21.10;27.80;;;;;;5120880;28;20015;-57
2022/04/08 02:02:02;;;;;;;;;;;21.00;28.00;;;;;;5126431;28;19923;-52
2022/04/08 02:04:28;;;;;;;;;;;21.20;27.80;;;;;;5124041;28;20022;-50
2022/04/08 02:06:54;;;;;;;;;;;21.00;28.10;;;;;;5123073;28;19931;-47
2022/04/08 02:09:20;;;;;;;;;;;21.30;28.00;;;;;;5128240;28;20278;-50
2022/04/08 02:11:46;;;;;;;;;;;21.00;28.10;;;;;;5122653;28;20026;-56
2022/04/08 02:14:11;;;;;;;;;;;21.20;28.00;;;;;;5122876;28;19930;-58
2022/04/08 02:16:37;;;;;;;;;;;21.10;28.10;;;;;;5106344;28;19938;-53
2022/04/08 02:19:03;;;;;;;;;;;21.20;28.00;;;;;;5120024;28;19923;-57
2022/04/08 02:21:29;;;;;;;;;;;21.00;28.20;;;;;;5122420;28;19927;-58
2022/04/08 02:23:55;;;;;;;;;;;21.30;27.90;;;;;;5108443;28;19927;-57
2022/04/08 02:26:21;;;;;;;;;;;20.90;27.90;;;;;;5122389;28;20037;-52
2022/04/08 02:28:47;;;;;;;;;;;21.20;27.70;;;;;;5127651;27;19982;-55
2022/04/08 02:31:13;;;;;;;;;;;21.10;27.80;;;;;;5122639;28;19923;-57
2022/04/08 02:33:38;;;;;;;;;;;21.10;27.60;;;;;;5122567;28;20154;-59
2022/04/08 02:36:05;;;;;;;;;;;20.90;27.90;;;;;;5124799;28;19924;-58
2022/04/08 02:38:30;;;;;;;;;;;21.30;27.50;;;;;;5103525;28;19927;-50
2022/04/08 02:40:56;;;;;;;;;;;21.10;27.70;;;;;;5120660;28;19931;-57
2022/04/08 02:43:22;;;;;;;;;;;21.20;27.70;;;;;;5127997;28;19927;-58
2022/04/08 02:45:48;;;;;;;;;;;21.10;27.70;;;;;;5122479;28;19932;-58
2022/04/08 02:48:14;;;;;;;;;;;21.30;27.60;;;;;;5127656;28;20316;-51
2022/04/08 02:50:40;;;;;;;;;;;20.90;28.00;;;;;;5122340;28;19931;-58
2022/04/08 02:53:06;;;;;;;;;;;21.30;27.70;;;;;;5121451;28;20017;-49
2022/04/08 02:55:32;;;;;;;;;;;21.00;28.00;;;;;;5125545;28;20321;-58
2022/04/08 02:57:58;;;;;;;;;;;21.30;27.80;;;;;;5120428;28;19939;-48
2022/04/08 03:00:23;;;;;;;;;;;20.90;28.30;;;;;;5122300;28;19997;-57
2022/04/08 03:02:49;;;;;;;;;;;21.30;27.90;;;;;;5127915;28;19928;-48
2022/04/08 03:05:15;;;;;;;;;;;20.90;28.30;;;;;;5121052;28;19924;-56
2022/04/08 03:07:41;;;;;;;;;;;21.20;28.00;;;;;;5109482;28;19952;-59
2022/04/08 03:10:07;;;;;;;;;;;20.90;28.40;;;;;;5103975;28;19932;-55
2022/04/08 03:12:33;;;;;;;;;;;21.20;28.10;;;;;;5119133;28;20040;-59
2022/04/08 03:14:59;;;;;;;;;;;20.90;28.70;;;;;;5108788;28;19947;-57
2022/04/08 03:17:25;;;;;;;;;;;21.30;28.20;;;;;;5119931;28;20371;-59
2022/04/08 03:19:50;;;;;;;;;;;21.00;28.40;;;;;;5103474;28;20357;-58
2022/04/08 03:22:20;;;;;;;;;;;21.20;28.10;;;;;;5127549;28;19938;-58
2022/04/08 03:24:46;;;;;;;;;;;20.90;28.50;;;;;;5122069;28;19985;-56
2022/04/08 03:27:12;;;;;;;;;;;21.30;28.10;;;;;;5125928;28;19927;-57
2022/04/08 03:29:38;;;;;;;;;;;20.90;28.60;;;;;;5122686;28;19938;-58
2022/04/08 03:32:05;;;;;;;;;;;21.20;28.00;;;;;;5117610;28;19963;-57
2022/04/08 03:34:31;;;;;;;;;;;21.00;28.30;;;;;;5125054;28;19927;-58
2022/04/08 03:36:57;;;;;;;;;;;21.20;27.80;;;;;;5121245;28;19934;-51
2022/04/08 03:39:23;;;;;;;;;;;20.90;28.10;;;;;;5101363;28;20026;-57
2022/04/08 03:41:49;;;;;;;;;;;21.30;27.60;;;;;;5127174;28;20305;-58
2022/04/08 03:44:14;;;;;;;;;;;21.00;27.70;;;;;;5121348;28;19924;-56
2022/04/08 03:46:46;;;;;;;;;;;21.30;27.50;;;;;;5122552;28;19931;-56
2022/04/08 03:49:14;;;;;;;;;;;21.20;27.40;;;;;;5124005;28;19923;-55
2022/04/08 03:51:41;;;;;;;;;;;21.30;27.20;;;;;;5120983;28;19923;-56
2022/04/08 03:54:07;;;;;;;;;;;21.00;27.40;;;;;;5124583;28;19923;-57
2022/04/08 03:56:33;;;;;;;;;;;21.10;27.20;;;;;;5121392;28;19927;-58
2022/04/08 03:58:59;;;;;;;;;;;21.00;27.30;;;;;;5121325;28;19928;-57
2022/04/08 04:01:25;;;;;;;;;;;21.10;27.10;;;;;;5125605;28;19930;-49
2022/04/08 04:03:51;;;;;;;;;;;21.00;27.10;;;;;;5121405;28;20480;-56
2022/04/08 04:06:16;;;;;;;;;;;21.00;27.00;;;;;;5120554;28;20134;-57
2022/04/08 04:08:42;;;;;;;;;;;21.20;26.90;;;;;;5124115;28;19935;-59
2022/04/08 04:11:09;;;;;;;;;;;21.00;27.10;;;;;;5119632;28;19923;-58
2022/04/08 04:13:34;;;;;;;;;;;21.20;26.70;;;;;;5125775;28;20367;-58
2022/04/08 04:16:00;;;;;;;;;;;20.90;27.00;;;;;;5121156;28;19931;-57
2022/04/08 04:18:27;;;;;;;;;;;21.20;26.50;;;;;;5120759;28;19930;-59
2022/04/08 04:20:52;;;;;;;;;;;21.00;26.60;;;;;;5126345;27;19941;-57
2022/04/08 04:23:18;;;;;;;;;;;21.20;26.40;;;;;;5120970;28;20574;-59
2022/04/08 04:25:44;;;;;;;;;;;20.90;26.80;;;;;;5119143;28;19927;-55
2022/04/08 04:28:10;;;;;;;;;;;21.20;26.40;;;;;;5124585;28;19924;-50
2022/04/08 04:30:35;;;;;;;;;;;21.00;26.50;;;;;;5118830;28;20307;-58
2022/04/08 04:33:01;;;;;;;;;;;21.20;26.30;;;;;;5124682;28;20337;-56
2022/04/08 04:35:27;;;;;;;;;;;20.90;26.50;;;;;;5122879;27;20422;-59
2022/04/08 04:37:53;;;;;;;;;;;21.30;26.20;;;;;;5121093;28;19928;-57
2022/04/08 04:40:20;;;;;;;;;;;21.00;26.50;;;;;;5126292;28;19928;-55
2022/04/08 04:42:45;;;;;;;;;;;21.20;26.30;;;;;;5120766;28;20018;-58
2022/04/08 04:45:13;;;;;;;;;;;20.80;26.60;;;;;;5117821;28;19923;-48
2022/04/08 04:47:39;;;;;;;;;;;21.20;26.30;;;;;;5125755;28;19927;-50
2022/04/08 04:50:08;;;;;;;;;;;21.00;26.60;;;;;;5118563;27;19936;-55
2022/04/08 04:52:33;;;;;;;;;;;21.30;26.40;;;;;;5124301;28;19927;-59
2022/04/08 04:54:59;;;;;;;;;;;21.00;26.90;;;;;;5129662;28;19931;-56
2022/04/08 04:57:26;;;;;;;;;;;21.10;26.70;;;;;;5124145;28;19931;-59
2022/04/08 04:59:52;;;;;;;;;;;21.00;27.00;;;;;;5129525;28;19927;-56
2022/04/08 05:02:18;;;;;;;;;;;21.30;26.90;;;;;;5123074;28;20383;-59
2022/04/08 05:04:43;;;;;;;;;;;20.90;27.30;;;;;;5121864;28;20001;-54
2022/04/08 05:07:09;;;;;;;;;;;21.10;27.20;;;;;;5127419;28;19930;-57
2022/04/08 05:09:38;;;;;;;;;;;21.20;27.30;;;;;;5123878;28;19923;-56
2022/04/08 05:12:04;;;;;;;;;;;21.10;27.30;;;;;;5123880;28;20014;-59
2022/04/08 05:14:30;;;;;;;;;;;21.20;27.20;;;;;;5129444;28;20033;-58
2022/04/08 05:16:58;;;;;;;;;;;20.90;27.60;;;;;;5123920;28;19935;-57
2022/04/08 05:19:24;;;;;;;;;;;21.20;27.30;;;;;;5129308;28;20309;-58
2022/04/08 05:21:51;;;;;;;;;;;21.00;27.60;;;;;;5120862;28;19924;-56
2022/04/08 05:24:17;;;;;;;;;;;21.30;27.20;;;;;;5123619;27;20310;-58
2022/04/08 05:26:42;;;;;;;;;;;20.90;27.40;;;;;;5127180;28;19931;-56
2022/04/08 05:29:08;;;;;;;;;;;21.10;27.20;;;;;;5123739;28;19936;-59
2022/04/08 05:31:34;;;;;;;;;;;21.00;27.40;;;;;;5122230;28;20957;-59
2022/04/08 05:34:00;;;;;;;;;;;21.20;27.10;;;;;;5129060;28;20244;-59
2022/04/08 05:36:26;;;;;;;;;;;20.90;27.50;;;;;;5123470;28;19923;-58
2022/04/08 05:38:51;;;;;;;;;;;21.30;27.00;;;;;;5125760;28;20022;-57
2022/04/08 05:41:17;;;;;;;;;;;20.90;27.50;;;;;;5123813;28;19927;-56
2022/04/08 05:43:44;;;;;;;;;;;21.20;27.20;;;;;;5122178;28;19930;-59
2022/04/08 05:46:10;;;;;;;;;;;20.90;27.60;;;;;;5128252;27;19923;-58
2022/04/08 05:48:36;;;;;;;;;;;21.10;27.40;;;;;;5123505;28;21955;-59
2022/04/08 05:51:02;;;;;;;;;;;21.00;27.50;;;;;;5123363;28;20285;-56
2022/04/08 05:53:27;;;;;;;;;;;21.20;27.20;;;;;;5128945;28;19927;-57
2022/04/08 05:55:56;;;;;;;;;;;20.90;27.70;;;;;;5123242;28;19966;-59
2022/04/08 05:58:22;;;;;;;;;;;21.30;27.30;;;;;;5121217;28;20295;-59
2022/04/08 06:00:48;;;;;;;;;;;20.90;27.60;;;;;;5127287;28;19928;-58
2022/04/08 06:03:14;;;;;;;;;;;21.30;27.40;;;;;;5120387;27;19927;-58
2022/04/08 06:05:40;;;;;;;;;;;20.90;27.80;;;;;;5128396;28;20022;-52
2022/04/08 06:08:06;;;;;;;;;;;21.20;27.60;;;;;;5121795;28;19923;-60
2022/04/08 06:10:31;;;;;;;;;;;21.00;28.50;;;;;;5123078;28;19927;-53
2022/04/08 06:12:57;;;;;;;;;;;21.20;28.50;;;;;;5128430;28;19924;-59
2022/04/08 06:15:23;;;;;;;;;;;20.90;29.20;;;;;;5122397;28;19923;-57
2022/04/08 06:17:49;;;;;;;;;;;21.30;28.60;;;;;;5120288;27;20324;-59
2022/04/08 06:20:16;;;;;;;;;;;21.00;29.00;;;;;;5127409;28;19995;-59
2022/04/08 06:22:41;;;;;;;;;;;21.30;28.80;;;;;;5120904;28;19944;-58
2022/04/08 06:25:08;;;;;;;;;;;20.90;29.20;;;;;;5128136;28;20367;-58
2022/04/08 06:27:34;;;;;;;;;;;21.20;28.90;;;;;;5102941;28;20352;-59
2022/04/08 06:29:59;;;;;;;;;;;21.00;29.50;;;;;;5104267;28;19952;-57
2022/04/08 06:32:25;;;;;;;;;;;21.20;29.10;;;;;;5128229;28;19931;-58
2022/04/08 06:34:51;;;;;;;;;;;20.80;29.70;;;;;;5102645;28;19927;-58
2022/04/08 06:37:17;;;;;;;;;;;21.20;29.30;;;;;;5120693;28;19938;-59
2022/04/08 06:39:44;;;;;;;;;;;20.90;29.80;;;;;;5125689;28;19923;-55
2022/04/08 06:42:10;;;;;;;;;;;21.20;29.70;;;;;;5120356;28;19924;-53
2022/04/08 06:44:36;;;;;;;;;;;21.00;30.40;;;;;;5127363;28;19923;-53
2022/04/08 06:47:02;;;;;;;;;;;21.30;30.00;;;;;;5123952;28;19928;-54
2022/04/08 06:49:27;;;;;;;;;;;21.00;30.30;;;;;;5122494;28;19943;-53
2022/04/08 06:51:58;;;;;;;;;;;21.20;30.00;;;;;;5127845;28;20419;-56
2022/04/08 06:54:24;;;;;;;;;;;21.00;30.20;;;;;;5119155;28;20437;-57
2022/04/08 06:56:51;;;;;;;;;;;21.30;30.00;;;;;;5121852;28;19923;-58
2022/04/08 06:59:17;;;;;;;;;;;20.90;30.60;;;;;;5125415;28;19930;-58
2022/04/08 07:01:43;;;;;;;;;;;21.20;30.30;;;;;;5122077;28;19923;-58
2022/04/08 07:04:08;;;;;;;;;;;20.80;31.00;;;;;;5122006;28;20283;-56
2022/04/08 07:06:34;;;;;;;;;;;21.20;30.80;;;;;;5126246;28;19924;-59
2022/04/08 07:09:00;;;;;;;;;;;21.00;31.40;;;;;;5122135;28;19931;-58
2022/04/08 07:11:26;;;;;;;;;;;21.30;31.20;;;;;;5125352;28;19923;-58
2022/04/08 07:13:51;;;;;;;;;;;20.90;31.70;;;;;;5119452;27;19923;-57
2022/04/08 07:16:17;;;;;;;;;;;21.20;31.30;;;;;;5119952;28;20016;-57
2022/04/08 07:18:43;;;;;;;;;;;20.90;31.80;;;;;;5107979;28;19923;-56
2022/04/08 07:21:09;;;;;;;;;;;21.20;31.30;;;;;;5121780;28;19940;-59
2022/04/08 07:23:36;;;;;;;;;;;21.10;31.60;;;;;;5122014;28;19971;-58
2022/04/08 07:26:02;;;;;;;;;;;21.10;31.60;;;;;;5127237;28;19924;-59
2022/04/08 07:28:28;;;;;;;;;;;20.90;32.40;;;;;;5103505;28;20389;-56
2022/04/08 07:30:54;;;;;;;;;;;21.20;32.10;;;;;;5124555;28;19953;-59
2022/04/08 07:33:20;;;;;;;;;;;20.90;32.90;;;;;;5121047;28;19924;-55
2022/04/08 07:35:46;;;;;;;;;;;21.20;32.60;;;;;;5119341;28;19927;-57
2022/04/08 07:38:11;;;;;;;;;;;21.00;33.20;;;;;;5127126;28;20012;-55
2022/04/08 07:40:37;;;;;;;;;;;21.10;33.40;;;;;;5121583;28;20294;-59
2022/04/08 07:43:03;;;;;;;;;;;21.10;33.50;;;;;;5121694;28;20422;-50
2022/04/08 07:45:30;;;;;;;;;;;21.00;33.70;;;;;;5127094;28;20329;-60
2022/04/08 07:47:58;;;;;;;;;;;21.10;33.80;;;;;;5120830;28;19974;-58
2022/04/08 07:50:25;;;;;;;;;;;21.10;33.90;;;;;;5123642;28;19973;-55
2022/04/08 07:52:50;;;;;;;;;;;21.20;33.40;;;;;;5121334;28;20276;-58
2022/04/08 07:55:20;;;;;;;;;;;20.80;33.50;;;;;;5120342;28;19923;-58
2022/04/08 07:57:46;;;;;;;;;;;21.10;33.10;;;;;;5126821;28;19946;-59
2022/04/08 08:00:12;;;;;;;;;;;21.10;33.30;;;;;;5121428;28;19934;-57
2022/04/08 08:02:38;;;;;;;;;;;21.10;33.40;;;;;;5121188;28;19927;-59
2022/04/08 08:05:04;;;;;;;;;;;21.00;33.70;;;;;;5126621;28;19927;-56
2022/04/08 08:07:30;;;;;;;;;;;21.10;33.60;;;;;;5119050;28;20538;-57
2022/04/08 08:09:56;;;;;;;;;;;21.20;33.60;;;;;;5120038;28;19923;-59
2022/04/08 08:12:22;;;;;;;;;;;21.00;34.30;;;;;;5124134;28;19931;-57
2022/04/08 08:14:47;;;;;;;;;;;21.20;34.20;;;;;;5121305;28;19927;-52
2022/04/08 08:17:13;;;;;;;;;;;20.90;34.80;;;;;;5106333;28;19930;-59
2022/04/08 08:19:39;;;;;;;;;;;21.10;34.70;;;;;;5120921;28;19957;-53
2022/04/08 08:22:05;;;;;;;;;;;21.10;34.40;;;;;;5120690;28;20696;-58
2022/04/08 08:24:31;;;;;;;;;;;21.20;34.20;;;;;;5107647;28;19964;-57
2022/04/08 08:26:56;;;;;;;;;;;21.00;34.50;;;;;;5117590;27;20018;-57
2022/04/08 08:29:22;;;;;;;;;;;21.20;34.60;;;;;;5101962;28;20346;-48
2022/04/08 08:31:48;;;;;;;;;;;20.90;35.10;;;;;;5124558;28;20415;-59
2022/04/08 08:34:14;;;;;;;;;;;21.20;34.80;;;;;;5102473;28;20287;-58
2022/04/08 08:36:39;;;;;;;;;;;21.00;35.10;;;;;;5126315;28;19923;-59
2022/04/08 08:39:05;;;;;;;;;;;21.10;35.10;;;;;;5120639;28;19935;-54
2022/04/08 08:41:31;;;;;;;;;;;21.00;35.30;;;;;;5120802;28;19923;-54
2022/04/08 08:43:57;;;;;;;;;;;21.30;34.80;;;;;;5124750;28;19924;-51
2022/04/08 08:46:22;;;;;;;;;;;21.00;34.90;;;;;;5118531;28;19924;-56
2022/04/08 08:48:50;;;;;;;;;;;21.20;34.60;;;;;;5100017;28;20144;-59
2022/04/08 08:51:16;;;;;;;;;;;20.90;34.90;;;;;;5126211;28;19923;-51
2022/04/08 08:53:41;;;;;;;;;;;21.20;34.40;;;;;;5120731;28;19930;-59
2022/04/08 08:56:07;;;;;;;;;;;20.90;35.20;;;;;;5125817;28;19946;-59
2022/04/08 08:58:34;;;;;;;;;;;21.20;34.80;;;;;;5120557;28;19928;-59
2022/04/08 09:01:00;;;;;;;;;;;21.00;35.30;;;;;;5120491;28;19928;-53
2022/04/08 09:03:29;;;;;;;;;;;21.20;35.20;;;;;;5122356;28;19924;-57
2022/04/08 09:05:55;;;;;;;;;;;21.00;35.50;;;;;;5119907;28;19931;-54
2022/04/08 09:08:21;;;;;;;;;;;21.20;35.00;;;;;;5118341;28;20140;-58
2022/04/08 09:10:51;;;;;;;;;;;21.00;35.30;;;;;;5105927;28;19928;-56
2022/04/08 09:13:20;;;;;;;;;;;21.00;35.20;;;;;;5120665;28;19991;-58
2022/04/08 09:15:58;;;;;;;;;;;21.10;34.90;;;;;;5102344;28;19932;-56
2022/04/08 09:18:29;;;;;;;;;;;20.90;35.00;;;;;;5125451;28;20545;-48
2022/04/08 09:20:55;;;;;;;;;;;21.10;34.60;;;;;;5118832;28;20397;-59
2022/04/08 09:23:21;;;;;;;;;;;21.00;34.80;;;;;;5121683;28;19967;-57
2022/04/08 09:25:48;;;;;;;;;;;21.20;34.80;;;;;;5119956;28;19962;-58
2022/04/08 09:28:15;;;;;;;;;;;21.00;35.70;;;;;;5120406;28;19930;-57
2022/04/08 09:30:46;;;;;;;;;;;21.20;35.40;;;;;;5125719;28;19927;-59
2022/04/08 09:33:12;;;;;;;;;;;20.90;35.90;;;;;;5120250;28;19942;-57
2022/04/08 09:35:39;;;;;;;;;;;21.20;35.40;;;;;;5120230;28;20477;-57
2022/04/08 09:38:05;;;;;;;;;;;20.90;35.50;;;;;;5126894;27;19988;-57
2022/04/08 09:40:35;;;;;;;;;;;21.00;34.90;;;;;;5120259;28;19923;-56
2022/04/08 09:43:02;;;;;;;;;;;21.00;35.40;;;;;;5123271;28;19924;-53
2022/04/08 09:45:30;;;;;;;;;;;21.10;34.80;;;;;;5126770;28;19923;-58
2022/04/08 09:47:59;;;;;;;;;;;21.10;34.80;;;;;;5123517;28;19934;-57
2022/04/08 09:50:26;;;;;;;;;;;21.20;34.70;;;;;;5128249;28;20018;-58
2022/04/08 09:52:52;;;;;;;;;;;21.10;35.10;;;;;;5106325;28;20034;-55
2022/04/08 09:55:18;;;;;;;;;;;21.10;35.10;;;;;;5104958;28;19927;-57
2022/04/08 09:57:45;;;;;;;;;;;21.00;35.40;;;;;;5127576;28;19972;-52
2022/04/08 10:00:10;;;;;;;;;;;21.00;35.50;;;;;;5102263;28;19987;-57
2022/04/08 10:02:39;;;;;;;;;;;21.20;35.00;;;;;;5121352;28;19927;-57
2022/04/08 10:05:05;;;;;;;;;;;20.80;35.30;;;;;;5128539;28;20442;-59
2022/04/08 10:07:31;;;;;;;;;;;21.00;35.10;;;;;;5123176;28;19988;-54
2022/04/08 10:10:06;;;;;;;;;;;21.20;34.80;;;;;;5105497;28;20302;-59
2022/04/08 10:12:32;;;;;;;;;;;20.80;35.20;;;;;;5110082;28;20022;-48
2022/04/08 10:15:03;;;;;;;;;;;21.20;34.70;;;;;;5122958;28;19931;-59
2022/04/08 10:17:29;;;;;;;;;;;21.10;34.80;;;;;;5106954;28;19923;-52
2022/04/08 10:20:14;;;;;;;;;;;21.00;34.90;;;;;;5102523;28;19931;-59
2022/04/08 10:22:40;;;;;;;;;;;21.00;34.70;;;;;;5117858;28;19930;-55
2022/04/08 10:25:12;;;;;;;;;;;21.10;34.40;;;;;;5128354;28;19941;-48
2022/04/08 10:27:38;;;;;;;;;;;21.20;34.20;;;;;;5122921;28;20272;-59
2022/04/08 10:30:22;;;;;;;;;;;20.80;34.50;;;;;;5103779;28;19924;-56
2022/04/08 10:32:58;;;;;;;;;;;21.10;34.00;;;;;;5128212;28;19979;-59
2022/04/08 10:35:23;;;;;;;;;;;21.30;34.10;;;;;;5097927;28;19930;-57
2022/04/08 10:38:02;;;;;;;;;;;21.00;34.70;;;;;;5121661;28;19931;-53
2022/04/08 10:40:38;;;;;;;;;;;21.20;34.30;;;;;;5125514;28;19937;-55
2022/04/08 10:43:05;;;;;;;;;;;21.20;34.30;;;;;;5122426;28;19930;-58
2022/04/08 10:45:31;;;;;;;;;;;20.90;34.60;;;;;;5122518;28;20022;-52
2022/04/08 10:48:00;;;;;;;;;;;21.10;34.30;;;;;;5109655;27;20180;-59
2022/04/08 10:50:27;;;;;;;;;;;21.10;34.20;;;;;;5122151;28;20382;-59
2022/04/08 10:53:06;;;;;;;;;;;21.30;33.90;;;;;;5103311;28;20315;-57
2022/04/08 10:55:31;;;;;;;;;;;21.00;34.20;;;;;;5125047;28;19927;-59
2022/04/08 10:57:57;;;;;;;;;;;21.10;34.20;;;;;;5120221;28;19934;-48
2022/04/08 11:00:25;;;;;;;;;;;21.00;34.60;;;;;;5122150;28;19923;-58
2022/04/08 11:02:54;;;;;;;;;;;21.10;34.60;;;;;;5127754;28;20034;-56
2022/04/08 11:05:23;;;;;;;;;;;21.00;34.80;;;;;;5122338;28;20103;-59
2022/04/08 11:07:50;;;;;;;;;;;21.20;34.90;;;;;;5127738;28;19927;-55
2022/04/08 11:10:20;;;;;;;;;;;21.10;35.00;;;;;;5122931;28;19976;-56
2022/04/08 11:12:53;;;;;;;;;;;21.00;35.30;;;;;;5100828;28;19947;-55
2022/04/08 11:15:25;;;;;;;;;;;21.10;35.20;;;;;;5127101;28;20325;-59
2022/04/08 11:17:51;;;;;;;;;;;21.10;35.10;;;;;;5120166;28;20066;-54
2022/04/08 11:20:17;;;;;;;;;;;21.10;35.20;;;;;;5121901;28;20022;-59
2022/04/08 11:22:44;;;;;;;;;;;21.00;35.60;;;;;;5127259;28;20290;-58
2022/04/08 11:25:10;;;;;;;;;;;21.00;35.60;;;;;;5121678;28;19945;-59
2022/04/08 11:27:36;;;;;;;;;;;21.00;35.60;;;;;;5103533;28;20325;-57
2022/04/08 11:30:08;;;;;;;;;;;21.00;35.60;;;;;;5106141;28;19925;-60
2022/04/08 11:32:34;;;;;;;;;;;20.90;35.80;;;;;;5119556;28;19923;-55
2022/04/08 11:35:09;;;;;;;;;;;21.20;35.20;;;;;;5123104;28;19986;-58
2022/04/08 11:37:35;;;;;;;;;;;21.00;35.30;;;;;;5108959;28;19923;-53
2022/04/08 11:40:02;;;;;;;;;;;21.20;35.10;;;;;;5121560;28;19945;-59
2022/04/08 11:42:28;;;;;;;;;;;20.90;35.50;;;;;;5127112;28;20418;-50
2022/04/08 11:44:54;;;;;;;;;;;21.20;35.10;;;;;;5121755;28;19923;-59
2022/04/08 11:47:28;;;;;;;;;;;20.90;35.60;;;;;;5121770;28;19923;-53
2022/04/08 11:50:00;;;;;;;;;;;21.10;35.30;;;;;;5123905;28;20010;-59
2022/04/08 11:52:26;;;;;;;;;;;21.10;35.50;;;;;;5120631;28;19931;-49
2022/04/08 11:54:52;;;;;;;;;;;21.20;35.40;;;;;;5101628;28;19923;-58
2022/04/08 11:57:25;;;;;;;;;;;21.10;35.70;;;;;;5126852;28;19923;-55
2022/04/08 11:59:51;;;;;;;;;;;21.30;35.40;;;;;;5120971;27;19933;-59
2022/04/08 12:02:19;;;;;;;;;;;20.90;36.40;;;;;;5102673;28;19924;-50
2022/04/08 12:04:44;;;;;;;;;;;21.10;36.00;;;;;;5126665;28;19923;-57
2022/04/08 12:07:20;;;;;;;;;;;21.10;36.20;;;;;;5119632;28;19923;-56
2022/04/08 12:09:49;;;;;;;;;;;21.10;36.00;;;;;;5124691;28;20014;-57
2022/04/08 12:12:21;;;;;;;;;;;21.00;36.30;;;;;;5120342;28;20026;-53
2022/04/08 12:14:47;;;;;;;;;;;21.00;36.20;;;;;;5121023;28;20022;-58
2022/04/08 12:17:12;;;;;;;;;;;21.20;36.00;;;;;;5126480;28;19927;-55
2022/04/08 12:19:40;;;;;;;;;;;21.00;36.30;;;;;;5120308;28;21297;-59
2022/04/08 12:22:09;;;;;;;;;;;21.00;36.50;;;;;;5120858;28;19945;-52
2022/04/08 12:24:35;;;;;;;;;;;21.10;36.30;;;;;;5125815;28;19923;-59
2022/04/08 12:27:03;;;;;;;;;;;21.10;36.50;;;;;;5118291;28;19980;-56
2022/04/08 12:29:29;;;;;;;;;;;21.00;36.70;;;;;;5100555;28;20046;-58
2022/04/08 12:31:57;;;;;;;;;;;21.20;36.40;;;;;;5124829;28;19975;-57
2022/04/08 12:34:23;;;;;;;;;;;21.00;36.50;;;;;;5120821;28;20423;-59
2022/04/08 12:36:49;;;;;;;;;;;20.90;36.70;;;;;;5126257;28;19927;-54
2022/04/08 12:39:15;;;;;;;;;;;21.20;36.40;;;;;;5120923;28;20026;-59
2022/04/08 12:41:41;;;;;;;;;;;21.00;36.70;;;;;;5120882;28;19934;-49
2022/04/08 12:44:07;;;;;;;;;;;21.20;36.10;;;;;;5124558;28;19938;-58
2022/04/08 12:46:33;;;;;;;;;;;20.90;36.40;;;;;;5118793;28;19923;-49
2022/04/08 12:48:58;;;;;;;;;;;21.20;36.20;;;;;;5100159;28;19935;-59
2022/04/08 12:51:24;;;;;;;;;;;20.90;36.70;;;;;;5126542;28;19923;-49
2022/04/08 12:53:50;;;;;;;;;;;21.20;36.40;;;;;;5120505;28;20409;-58
2022/04/08 12:56:17;;;;;;;;;;;21.00;36.60;;;;;;5124787;28;19934;-58
2022/04/08 12:58:42;;;;;;;;;;;21.20;36.20;;;;;;5122431;28;20382;-58
2022/04/08 13:01:08;;;;;;;;;;;21.00;36.60;;;;;;5120058;28;19934;-54
2022/04/08 13:03:34;;;;;;;;;;;21.20;36.20;;;;;;5104444;28;20344;-54
2022/04/08 13:06:00;;;;;;;;;;;20.90;36.80;;;;;;5119732;28;19946;-56
2022/04/08 13:08:25;;;;;;;;;;;21.10;36.40;;;;;;5118892;28;19929;-56
2022/04/08 13:10:51;;;;;;;;;;;21.20;36.10;;;;;;5125850;28;19980;-58
2022/04/08 13:13:21;;;;;;;;;;;21.00;36.70;;;;;;5123498;27;19923;-48
2022/04/08 13:15:46;;;;;;;;;;;21.10;36.40;;;;;;5124386;28;19923;-58
2022/04/08 13:18:12;;;;;;;;;;;21.00;36.70;;;;;;5129655;28;20348;-48
2022/04/08 13:20:38;;;;;;;;;;;21.20;36.20;;;;;;5122507;28;20454;-59
2022/04/08 13:23:04;;;;;;;;;;;21.00;36.60;;;;;;5126706;28;20849;-51
2022/04/08 13:25:31;;;;;;;;;;;21.20;36.20;;;;;;5121451;28;19930;-59
2022/04/08 13:27:57;;;;;;;;;;;21.00;36.40;;;;;;5123752;28;19931;-54
2022/04/08 13:30:23;;;;;;;;;;;21.10;36.30;;;;;;5128994;28;19927;-59
2022/04/08 13:32:48;;;;;;;;;;;21.00;36.50;;;;;;5123639;28;19928;-52
2022/04/08 13:35:14;;;;;;;;;;;21.00;36.20;;;;;;5105167;28;19924;-60
2022/04/08 13:37:40;;;;;;;;;;;21.10;36.00;;;;;;5108705;28;19923;-59
2022/04/08 13:40:06;;;;;;;;;;;20.90;36.50;;;;;;5120332;28;19949;-58
2022/04/08 13:42:32;;;;;;;;;;;21.00;36.40;;;;;;5128525;28;19975;-51
2022/04/08 13:44:58;;;;;;;;;;;21.10;36.30;;;;;;5121215;28;19923;-58
2022/04/08 13:47:23;;;;;;;;;;;21.10;36.30;;;;;;5123444;28;19930;-54
2022/04/08 13:49:49;;;;;;;;;;;21.20;36.30;;;;;;5128776;28;20317;-60
2022/04/08 13:52:15;;;;;;;;;;;21.00;36.50;;;;;;5105042;28;19923;-54
2022/04/08 13:54:41;;;;;;;;;;;21.20;36.40;;;;;;5123209;28;20206;-59
2022/04/08 13:57:06;;;;;;;;;;;20.90;37.10;;;;;;5127723;28;20030;-52
2022/04/08 13:59:32;;;;;;;;;;;21.10;36.80;;;;;;5120639;28;19923;-58
2022/04/08 14:01:58;;;;;;;;;;;21.10;37.10;;;;;;5126520;28;19930;-48
2022/04/08 14:04:24;;;;;;;;;;;21.00;37.20;;;;;;5123093;28;19934;-59
2022/04/08 14:06:50;;;;;;;;;;;21.00;37.40;;;;;;5123241;28;19976;-54
2022/04/08 14:09:15;;;;;;;;;;;21.10;37.30;;;;;;5128631;28;19924;-59
2022/04/08 14:11:41;;;;;;;;;;;20.90;37.80;;;;;;5123173;28;20363;-52